createdAt,value
2016-12-19T11:32:28.163Z,530
2016-12-19T11:42:39.051Z,1760
2016-12-19T11:52:49.585Z,1145
2016-12-19T12:03:00.012Z,705
2016-12-19T12:13:10.544Z,475
2016-12-19T12:23:21.300Z,470
2016-12-19T12:33:32.160Z,465
2016-12-19T12:43:42.976Z,530
2016-12-19T12:53:53.775Z,510
2016-12-19T13:04:04.561Z,415
2016-12-19T13:14:15.232Z,1030
2016-12-19T13:24:25.691Z,1135
2016-12-19T13:34:35.961Z,425
2016-12-19T13:44:46.425Z,865
2016-12-19T13:54:56.824Z,700
2016-12-19T14:05:07.219Z,615
2016-12-19T14:15:17.566Z,285
2016-12-19T14:25:28.075Z,170
2016-12-19T14:35:38.903Z,260
2016-12-19T14:45:49.724Z,195
2016-12-19T14:56:00.611Z,120
2016-12-19T15:06:11.577Z,60
2016-12-19T15:16:22.737Z,30
2016-12-19T15:26:34.069Z,10
2016-12-19T15:36:45.518Z,5
2016-12-19T15:46:57.053Z,0
2016-12-19T15:57:08.655Z,0
2016-12-19T16:07:20.254Z,0
2016-12-19T16:17:31.881Z,0
2016-12-19T16:27:43.488Z,0
2016-12-19T16:37:55.051Z,0
2016-12-19T16:48:06.656Z,0
2016-12-19T16:58:18.285Z,0
2016-12-19T17:08:29.996Z,0
2016-12-19T17:18:41.735Z,0
2016-12-19T17:28:53.506Z,0
2016-12-19T17:39:05.303Z,0
2016-12-19T17:49:17.114Z,0
2016-12-19T17:59:28.900Z,0
2016-12-19T18:09:40.743Z,0
2016-12-19T18:19:52.577Z,0
2016-12-19T18:30:04.457Z,0
2016-12-19T18:40:16.344Z,0
2016-12-19T18:50:28.273Z,0
2016-12-19T19:00:40.204Z,0
2016-12-19T19:10:52.171Z,0
2016-12-19T19:21:04.130Z,0
2016-12-19T19:31:16.112Z,0
2016-12-19T19:41:28.097Z,0
2016-12-19T19:51:40.129Z,0
2016-12-19T20:01:52.122Z,0
2016-12-19T20:12:04.155Z,0
2016-12-19T20:22:16.186Z,0
2016-12-19T20:32:28.203Z,0
2016-12-19T20:42:40.208Z,0
2016-12-19T20:52:52.202Z,0
2016-12-19T21:03:04.243Z,0
2016-12-19T21:13:16.321Z,0
2016-12-19T21:23:28.416Z,0
2016-12-19T21:33:40.609Z,0
2016-12-19T21:43:52.817Z,0
2016-12-19T21:54:04.974Z,0
2016-12-19T22:04:17.170Z,0
2016-12-19T22:14:29.383Z,0
2016-12-19T22:24:41.567Z,0
2016-12-19T22:34:53.773Z,0
2016-12-19T22:45:05.960Z,0
2016-12-19T22:55:18.170Z,0
2016-12-19T23:05:30.427Z,0
2016-12-19T23:15:42.763Z,0
2016-12-19T23:25:55.037Z,0
2016-12-19T23:36:07.350Z,0
2016-12-19T23:46:19.660Z,0
2016-12-19T23:56:32.012Z,0
